메인 페이지
METAR-TAF:

METAR-TAF

공항 :

사가 공항

사가, 일본

위도: 33-09N, 경도: 130-18E, 고도: 2m

현재 날씨관측

예보는 3 시간 18분 전, 12:00시(UTC)에 발표되었습니다.
남남동6kt
온도 29°C
습도 84%
기압 1007 hPa
시정 10km 이상
고도 2000ft 상공 구름 조금
고도 6000ft 상공 구름 보통
고도 7000ft 상공 구름 많음

METAR: RJFS 151200Z 15006KT 9999 FEW020 SCT060 BKN070 29/26 Q1007

시각: 00:18 (15:18 UTC)

예보

예보는 4 시간 4분 전, 11:14시(UTC)에 발표되었습니다.
예보 대상 시간: 15일 12시부터 16일 18시까지 (UTC)
남남동6kt
시정 10km 이상
고도 3000ft 상공 구름 조금
고도 4500ft 상공 구름 보통
일시적
16일 06시부터 16일 09시까지 (UTC)
시정: 4000m
고도 1000ft 상공 구름 조금
고도 2000ft 상공 구름 보통
고도 2500ft 상공 구름 조금, 적란운.
고도 3000ft 상공 구름 많음
뇌우, 약한비, 박무

TAF: RJFS 151114Z 1512/1618 15006KT 9999 FEW030 SCT045 TEMPO 1606/1609 4000 -TSRA BR FEW010 SCT020 FEW025CB BKN030

4,000개 이상의 공항 관측 자료 및 예보 (METAR 및 TAF 보고).

지도상에서 검색 가능한 기상관측소가 노란 점과 빨간 점으로 표시되어 있습니다.

기상관측소 명을 보려면 표시 위로 마우스를 이동하세요.

날씨 관측과 예보를 보려면 클릭하세요.

지도 변경 : 확대하려면 엑스 표시가 있는 녹색 버튼, 축소하려면 빼기 표시가 있는 녹색 버튼, 다음 페이지의 지도를 보려면 녹색 화살표를 클릭하세요.


METAR-TAF: